Kerem — 9HA2651 — position and weather

sailwx.info

Track history (hours):
 
Tides and Currents Weather Stations Pressure Air Temp Water Temp Dewpoint Dewpoint Depression Visibility Wind Speed Wind Dir Waves Ship Positions

Kerem

Last reported at 2018-Jun-10 00:11 UTC. Time now 2018-Jun-17 22:11 UTC.
Position S 32°52' E 031°58'.

Length 171 m; draft 9.7 m.

Type: Cargo ship. MMSI: 215143000.

Date/timePositionNaut miles runAvg speedWind from/ knotsBaromVisibWave heightAir tempDewpointWater temp
2018-Jun-10 00:11S 32°52' E 031°58'5012.9
2018-Jun-09 20:19S 33°09' E 031°03'412.8
2018-Jun-09 20:00S 33°11' E 030°58'  
2018-Jun-07 11:46S 34°38' E 018°26'513.0
2018-Jun-07 11:25S 34°35' E 018°21'1113.0
2018-Jun-07 10:36S 34°27' E 018°12'513.1
2018-Jun-07 10:14S 34°24' E 018°08'313.1
2018-Jun-07 10:00S 34°22' E 018°05'713.2
2018-Jun-07 09:30S 34°16' E 018°01'712.8
2018-Jun-07 08:59S 34°11' E 017°56'612.6
2018-Jun-07 08:31S 34°06' E 017°52'712.4
2018-Jun-07 07:56S 34°01' E 017°46'1012.1
2018-Jun-07 07:08S 33°53' E 017°39'  
Track history (hours):
 
Tides and Currents Weather Stations Pressure Air Temp Water Temp Dewpoint Dewpoint Depression Visibility Wind Speed Wind Dir Waves Ship Positions

Kerem

Last reported at 2018-Jun-10 00:11 UTC. Time now 2018-Jun-17 22:11 UTC.
Position S 32°52' E 031°58'.

Length 171 m; draft 9.7 m.

Type: Cargo ship. MMSI: 215143000.

Date/timePositionNaut miles runAvg speedWind from/ knotsBaromVisibWave heightAir tempDewpointWater temp
2018-Jun-10 00:11S 32°52' E 031°58'5012.9
2018-Jun-09 20:19S 33°09' E 031°03'412.8
2018-Jun-09 20:00S 33°11' E 030°58'  
2018-Jun-07 11:46S 34°38' E 018°26'513.0
2018-Jun-07 11:25S 34°35' E 018°21'1113.0
2018-Jun-07 10:36S 34°27' E 018°12'513.1
2018-Jun-07 10:14S 34°24' E 018°08'313.1
2018-Jun-07 10:00S 34°22' E 018°05'713.2
2018-Jun-07 09:30S 34°16' E 018°01'712.8
2018-Jun-07 08:59S 34°11' E 017°56'612.6
2018-Jun-07 08:31S 34°06' E 017°52'712.4
2018-Jun-07 07:56S 34°01' E 017°46'1012.1
2018-Jun-07 07:08S 33°53' E 017°39'  

Dump ship's entire track history